Aviation Digital Data Service (ADDS)

Output produced by METARs form (1741 UTC 28 March 2017)
found at http://aviationweather.gov/adds/metars/
 
KFAY 281214Z 2812/2912 20009KT P6SM -RA SCT060 BKN070 
     TEMPO 2812/2813 4SM -TSRA BR BKN035CB 
     FM281500 24011G19KT P6SM SCT050 
     FM290000 28007KT P6SM SKC